Sea Leader — 9HA2250 — position and weather

sailwx.info

Track history (hours):
 
Tides and Currents Weather Stations Pressure Air Temp Water Temp Dewpoint Dewpoint Depression Visibility Wind Speed Wind Dir Waves Ship Positions

Sea Leader

Last reported at 2018-Aug-16 16:44 UTC. Time now 2018-Aug-21 01:55 UTC.
Position N 44°52' E 036°36'.

Length 128 m; draft 3.5 m.

Type: Cargo ship. MMSI: 229939000.

Date/timePositionNaut miles runAvg speedWind from/ knotsBaromVisibWave heightAir tempDewpointWater temp
2018-Aug-16 16:44N 44°52' E 036°36'0 0.0
2018-Aug-16 16:29N 44°52' E 036°36'0 0.0
2018-Aug-16 15:59N 44°52' E 036°36'0 0.0
2018-Aug-14 20:08N 44°52' E 036°36'0 0.0
2018-Aug-14 19:53N 44°52' E 036°36'0 0.0
2018-Aug-14 19:29N 44°52' E 036°36'0 0.0
2018-Aug-14 18:50N 44°52' E 036°36'0 0.0
2018-Aug-14 17:41N 44°52' E 036°36'0 0.0
2018-Aug-14 17:11N 44°52' E 036°36'0 0.0
2018-Aug-14 16:47N 44°52' E 036°36'0 0.0
2018-Aug-14 15:41N 44°52' E 036°36'0 0.0
2018-Aug-14 15:23N 44°52' E 036°36'0 0.0
2018-Aug-14 14:50N 44°52' E 036°36'0 0.0
2018-Aug-14 14:29N 44°52' E 036°36'0 0.0
2018-Aug-14 13:59N 44°52' E 036°36'0 0.0
2018-Aug-14 13:26N 44°52' E 036°36'0 0.0
2018-Aug-14 09:11N 44°52' E 036°36'0 0.0
2018-Aug-14 08:53N 44°52' E 036°36'0 0.0
2018-Aug-14 08:26N 44°52' E 036°36'0 0.0
2018-Aug-14 07:53N 44°52' E 036°36'0 0.0
2018-Aug-14 07:23N 44°52' E 036°36'0 0.0
2018-Aug-14 05:23N 44°52' E 036°36'0 0.0
2018-Aug-13 20:17N 44°52' E 036°36'52 8.2
2018-Aug-13 13:55N 44°26' E 035°32'7 7.8
2018-Aug-13 13:02N 44°23' E 035°24'0 7.8
2018-Aug-13 12:59N 44°23' E 035°23'4 7.8
2018-Aug-13 12:30N 44°21' E 035°19'4 7.8
2018-Aug-13 12:00N 44°19' E 035°14'4 7.8
2018-Aug-13 11:30N 44°17' E 035°09'4 7.7
2018-Aug-13 10:57N 44°15' E 035°04'236 7.4
2018-Aug-12 03:15N 43°59' E 029°36'2 7.3
2018-Aug-12 03:00N 43°59' E 029°33'4 7.3
2018-Aug-12 02:30N 43°60' E 029°28'4 7.3
2018-Aug-12 02:00N 44°00' E 029°23'4 7.4
2018-Aug-12 01:30N 44°00' E 029°18'4 7.5
2018-Aug-12 01:00N 44°01' E 029°13'4 7.3
2018-Aug-12 00:30N 44°01' E 029°08'4 7.3
2018-Aug-12 00:00N 44°02' E 029°03'4 7.3
2018-Aug-11 23:30N 44°02' E 028°58'4 7.4
2018-Aug-11 23:00N 44°02' E 028°53'4 7.6
2018-Aug-11 22:30N 44°03' E 028°48'4 7.0
2018-Aug-11 22:00N 44°04' E 028°43'4 7.3
2018-Aug-11 21:30N 44°07' E 028°41'2 3.5
2018-Aug-11 20:55N 44°09' E 028°39'0 0.0
2018-Aug-11 20:28N 44°09' E 028°39'0 0.0
2018-Aug-11 19:58N 44°09' E 028°39'0 0.0
2018-Aug-11 19:28N 44°09' E 028°39'0 0.0
2018-Aug-11 18:58N 44°09' E 028°39'0 0.0
2018-Aug-11 18:28N 44°09' E 028°39'0 0.0
2018-Aug-11 17:58N 44°09' E 028°39'0 0.0
2018-Aug-11 17:28N 44°09' E 028°39'0 0.0
2018-Aug-11 16:55N 44°09' E 028°39'0 0.0
2018-Aug-11 16:28N 44°09' E 028°39'0 0.0
2018-Aug-11 15:58N 44°09' E 028°39'0 0.0
2018-Aug-11 15:28N 44°09' E 028°39'0 0.0
2018-Aug-11 14:58N 44°09' E 028°39'0 0.0
2018-Aug-11 14:28N 44°09' E 028°39'0 0.0
2018-Aug-11 13:58N 44°09' E 028°39'0 0.0
2018-Aug-11 13:28N 44°09' E 028°39'0 0.0
2018-Aug-11 12:58N 44°09' E 028°39'0 0.0
2018-Aug-11 12:28N 44°09' E 028°39'0 0.0
2018-Aug-11 11:58N 44°09' E 028°39'0 0.0
2018-Aug-11 11:28N 44°09' E 028°39'0 0.0
2018-Aug-11 10:58N 44°09' E 028°39'0 0.0
2018-Aug-11 10:28N 44°09' E 028°39'0 0.0
2018-Aug-11 09:58N 44°09' E 028°39'0 0.0
2018-Aug-11 09:28N 44°09' E 028°39'0 0.0
2018-Aug-11 08:58N 44°09' E 028°39'0 0.0
2018-Aug-11 08:28N 44°09' E 028°39'0 0.0
2018-Aug-11 07:58N 44°09' E 028°39'0 0.0
2018-Aug-11 07:28N 44°09' E 028°39'0 0.0
2018-Aug-11 06:58N 44°09' E 028°39'0 0.0
2018-Aug-11 06:28N 44°09' E 028°39'0 0.0
2018-Aug-11 05:58N 44°09' E 028°39'0 0.0
2018-Aug-11 05:28N 44°09' E 028°39'0 0.0
2018-Aug-11 04:58N 44°09' E 028°39'0 0.0
2018-Aug-11 04:28N 44°09' E 028°39'0 0.0
2018-Aug-11 03:58N 44°09' E 028°39'0 0.0
2018-Aug-11 03:28N 44°09' E 028°39'0 0.0
2018-Aug-11 02:58N 44°09' E 028°39'0 0.0
2018-Aug-11 02:28N 44°09' E 028°39'0 0.0
2018-Aug-11 01:58N 44°09' E 028°39'0 0.0
2018-Aug-11 01:28N 44°09' E 028°39'0 0.0
2018-Aug-11 00:58N 44°09' E 028°39'0 0.0
2018-Aug-11 00:28N 44°09' E 028°39'0 0.0
2018-Aug-10 23:58N 44°09' E 028°39'0 0.0
2018-Aug-10 23:28N 44°09' E 028°39'0 0.0
2018-Aug-10 22:58N 44°09' E 028°39'0 0.0
2018-Aug-10 22:28N 44°09' E 028°39'0 0.0
2018-Aug-10 21:58N 44°09' E 028°39'0 0.0
2018-Aug-10 21:28N 44°09' E 028°39'0 0.0
2018-Aug-10 20:58N 44°09' E 028°39'0 0.0
2018-Aug-10 20:28N 44°09' E 028°39'0 0.0
2018-Aug-10 19:58N 44°09' E 028°39'0 0.0
2018-Aug-10 19:28N 44°09' E 028°39'0 0.0
2018-Aug-10 18:58N 44°09' E 028°39'0 0.0
2018-Aug-10 18:25N 44°09' E 028°39'0 0.0
2018-Aug-10 17:55N 44°09' E 028°39'0 0.0
2018-Aug-10 17:28N 44°09' E 028°39'0 0.0
2018-Aug-10 16:58N 44°09' E 028°39'0 0.0
2018-Aug-10 16:28N 44°09' E 028°39'0 0.0
2018-Aug-10 15:55N 44°09' E 028°39'0 0.0
2018-Aug-10 15:25N 44°09' E 028°39'0 0.0
2018-Aug-10 14:58N 44°09' E 028°39'0 0.0
2018-Aug-10 14:28N 44°09' E 028°39'0 0.0
2018-Aug-10 13:58N 44°09' E 028°39'0 0.0
2018-Aug-10 13:28N 44°09' E 028°39'0 0.0
2018-Aug-10 12:58N 44°09' E 028°39'0 0.0
2018-Aug-10 12:28N 44°09' E 028°39'0 0.0
2018-Aug-10 11:58N 44°09' E 028°39'0 0.0
2018-Aug-10 11:28N 44°09' E 028°39'0 0.0
2018-Aug-10 10:58N 44°09' E 028°39'0 0.0
2018-Aug-10 10:28N 44°09' E 028°39'0 0.0
2018-Aug-10 09:58N 44°09' E 028°39'0 0.0
2018-Aug-10 09:28N 44°09' E 028°39'0 0.0
2018-Aug-10 08:58N 44°09' E 028°39'0 0.0
2018-Aug-10 08:28N 44°09' E 028°39'0 0.0
2018-Aug-10 07:58N 44°09' E 028°39'0 0.0
2018-Aug-10 07:28N 44°09' E 028°39'0 0.0
2018-Aug-10 06:58N 44°09' E 028°39'0 0.0
2018-Aug-10 06:28N 44°09' E 028°39'0 0.0
2018-Aug-10 05:58N 44°09' E 028°39'0 0.0
2018-Aug-10 05:28N 44°09' E 028°39'0 0.0
2018-Aug-10 04:58N 44°09' E 028°39'0 0.0
2018-Aug-10 04:28N 44°09' E 028°39'0 0.0
2018-Aug-10 03:58N 44°09' E 028°39'0 0.0
2018-Aug-10 03:28N 44°09' E 028°39'0 0.0
2018-Aug-10 02:58N 44°09' E 028°39'0 0.0
2018-Aug-10 02:28N 44°09' E 028°39'0 0.0
2018-Aug-10 01:58N 44°09' E 028°39'0 0.0
2018-Aug-10 01:28N 44°09' E 028°39'0 0.0
2018-Aug-10 00:58N 44°09' E 028°39'0 0.0
2018-Aug-10 00:28N 44°09' E 028°39'0 0.0
2018-Aug-09 23:58N 44°09' E 028°39'0 0.0
2018-Aug-09 23:28N 44°09' E 028°39'0 0.0
2018-Aug-09 22:58N 44°09' E 028°39'0 0.0
2018-Aug-09 22:28N 44°09' E 028°39'0 0.0
2018-Aug-09 21:58N 44°09' E 028°39'0 0.0
2018-Aug-09 21:25N 44°09' E 028°39'0 0.0
2018-Aug-09 20:55N 44°09' E 028°39'0 0.0
2018-Aug-09 20:28N 44°09' E 028°39'0 0.0
2018-Aug-09 19:58N 44°09' E 028°39'0 0.0
2018-Aug-09 19:25N 44°09' E 028°39'0 0.0
2018-Aug-09 18:58N 44°09' E 028°39'0 0.0
2018-Aug-09 18:28N 44°09' E 028°39'0 0.0
2018-Aug-09 17:58N 44°09' E 028°39'0 0.0
2018-Aug-09 17:28N 44°09' E 028°39'0 0.0
2018-Aug-09 16:58N 44°09' E 028°39'0 0.0
2018-Aug-09 16:28N 44°09' E 028°39'0 0.0
2018-Aug-09 15:58N 44°09' E 028°39'0 0.0
2018-Aug-09 15:28N 44°09' E 028°39'0 0.0
2018-Aug-09 14:58N 44°09' E 028°39'0 0.0
2018-Aug-09 14:28N 44°09' E 028°39'0 0.0
2018-Aug-09 14:00N 44°09' E 028°39'1 1.5
2018-Aug-09 13:30N 44°09' E 028°40'3 6.1
2018-Aug-09 13:00N 44°06' E 028°42'2 3.7
2018-Aug-09 12:30N 44°06' E 028°45'0 1.0
2018-Aug-09 12:00N 44°07' E 028°45'0 0.1
2018-Aug-09 11:30N 44°07' E 028°45'0 0.1
2018-Aug-09 11:00N 44°07' E 028°45'0 0.1
2018-Aug-09 10:30N 44°07' E 028°45'0 0.0
2018-Aug-09 10:00N 44°07' E 028°45'0 0.0
2018-Aug-09 09:30N 44°07' E 028°45'0 0.0
2018-Aug-09 09:00N 44°07' E 028°45'0 0.0
2018-Aug-09 08:30N 44°07' E 028°45'0 0.0
2018-Aug-09 08:00N 44°07' E 028°45'0 0.0
2018-Aug-09 07:30N 44°07' E 028°45'0 0.0
2018-Aug-09 07:00N 44°07' E 028°45'0 0.0
2018-Aug-09 06:30N 44°07' E 028°45'0 0.0
2018-Aug-09 06:00N 44°07' E 028°45'0 0.0
2018-Aug-09 05:30N 44°07' E 028°45'0 0.0
2018-Aug-09 05:00N 44°07' E 028°45'0 0.0
2018-Aug-09 04:30N 44°07' E 028°45'0 0.0
2018-Aug-09 04:00N 44°07' E 028°45'0 0.0
2018-Aug-09 03:30N 44°07' E 028°45'0 0.0
2018-Aug-09 03:00N 44°07' E 028°45'0 0.0
2018-Aug-09 02:30N 44°07' E 028°45'0 0.0
2018-Aug-09 02:00N 44°07' E 028°45'0 0.0
2018-Aug-09 01:30N 44°07' E 028°45'0 0.0
2018-Aug-09 01:00N 44°07' E 028°45'0 0.0
2018-Aug-09 00:30N 44°07' E 028°45'0 0.0
2018-Aug-09 00:00N 44°07' E 028°45'0 0.0
2018-Aug-08 23:30N 44°07' E 028°45'0 0.0
2018-Aug-08 23:00N 44°07' E 028°45'0 0.0
2018-Aug-08 22:30N 44°07' E 028°45'0 0.0
2018-Aug-08 22:00N 44°07' E 028°45'0 0.0
2018-Aug-08 21:30N 44°07' E 028°45'0 0.0
2018-Aug-08 21:00N 44°07' E 028°45'0 0.0
2018-Aug-08 20:30N 44°07' E 028°45'0 0.0
2018-Aug-08 20:00N 44°07' E 028°45'0 0.0
2018-Aug-08 19:30N 44°07' E 028°45'0 0.0
2018-Aug-08 19:00N 44°07' E 028°45'0 0.0
2018-Aug-08 18:30N 44°07' E 028°45'0 0.0
2018-Aug-08 18:00N 44°07' E 028°45'0 0.0
2018-Aug-08 17:30N 44°07' E 028°45'0 0.0
2018-Aug-08 17:00N 44°07' E 028°45'0 0.0
2018-Aug-08 16:30N 44°07' E 028°45'0 0.0
2018-Aug-08 16:00N 44°07' E 028°45'0 0.0
2018-Aug-08 15:30N 44°07' E 028°45'0 0.0
2018-Aug-08 15:00N 44°07' E 028°45'0 0.0
2018-Aug-08 14:30N 44°07' E 028°45'0 0.0
2018-Aug-08 14:00N 44°07' E 028°45'0 0.0
2018-Aug-08 13:30N 44°07' E 028°45'0 0.0
2018-Aug-08 13:00N 44°07' E 028°45'0 0.0
2018-Aug-08 12:27N 44°07' E 028°45'0 0.0
2018-Aug-08 12:00N 44°07' E 028°45'0 0.0
2018-Aug-08 11:30N 44°07' E 028°45'0 0.0
2018-Aug-08 11:00N 44°07' E 028°45'0 0.0
2018-Aug-08 10:30N 44°07' E 028°45'0 0.0
2018-Aug-08 10:00N 44°07' E 028°45'0 0.0
2018-Aug-08 09:30N 44°07' E 028°45'0 0.0
2018-Aug-08 09:00N 44°07' E 028°45'0 0.0
2018-Aug-08 08:30N 44°07' E 028°45'0 0.0
2018-Aug-08 08:00N 44°07' E 028°45'0 0.0
2018-Aug-08 07:30N 44°07' E 028°45'0 0.0
2018-Aug-08 07:00N 44°07' E 028°45'0 0.0
2018-Aug-08 06:30N 44°07' E 028°45'0 0.0
2018-Aug-08 06:00N 44°07' E 028°45'0 0.0
2018-Aug-08 05:30N 44°07' E 028°45'0 0.0
2018-Aug-08 05:00N 44°07' E 028°45'0 0.0
2018-Aug-08 04:30N 44°07' E 028°45'0 0.0
2018-Aug-08 04:00N 44°07' E 028°45'0 0.0
2018-Aug-08 03:30N 44°07' E 028°45'0 0.0
2018-Aug-08 03:00N 44°07' E 028°45'0 0.0
2018-Aug-08 02:30N 44°07' E 028°45'0 0.0
2018-Aug-08 02:00N 44°07' E 028°45'0 0.0
2018-Aug-08 01:30N 44°07' E 028°45'0 0.0
2018-Aug-08 01:00N 44°07' E 028°45'0 0.0
2018-Aug-08 00:30N 44°07' E 028°45'0 0.0
2018-Aug-08 00:00N 44°07' E 028°45'0 0.0
2018-Aug-07 23:30N 44°07' E 028°45'0 0.0
2018-Aug-07 23:00N 44°07' E 028°45'0 0.0
2018-Aug-07 22:27N 44°07' E 028°45'0 0.0
2018-Aug-07 22:00N 44°07' E 028°45'0 0.0
2018-Aug-07 21:30N 44°07' E 028°45'0 0.0
2018-Aug-07 21:00N 44°07' E 028°45'0 0.0
2018-Aug-07 20:30N 44°07' E 028°45'0 0.0
2018-Aug-07 20:00N 44°07' E 028°45'0 0.0
2018-Aug-07 19:30N 44°07' E 028°45'0 0.0
2018-Aug-07 19:00N 44°07' E 028°45'0 0.0
2018-Aug-07 18:30N 44°07' E 028°45'0 0.0
2018-Aug-07 18:00N 44°07' E 028°45'0 0.0
2018-Aug-07 17:30N 44°07' E 028°45'0 0.0
2018-Aug-07 17:00N 44°07' E 028°45'0 0.0
2018-Aug-07 16:30N 44°07' E 028°45'0 0.0
2018-Aug-07 16:00N 44°07' E 028°45'0 0.0
2018-Aug-07 15:30N 44°07' E 028°45'0 0.0
2018-Aug-07 15:00N 44°07' E 028°45'0 0.0
2018-Aug-07 14:30N 44°07' E 028°45'0 0.0
2018-Aug-07 14:00N 44°07' E 028°45'0 0.0
2018-Aug-07 13:30N 44°07' E 028°45'0 0.0
2018-Aug-07 13:00N 44°07' E 028°45'0 0.0
2018-Aug-07 12:30N 44°07' E 028°45'0 0.0
2018-Aug-07 12:00N 44°07' E 028°45'0 0.0
2018-Aug-07 11:30N 44°07' E 028°45'0 0.0
2018-Aug-07 11:00N 44°07' E 028°45'0 0.1
2018-Aug-07 10:30N 44°07' E 028°45'0 0.0
2018-Aug-07 10:00N 44°07' E 028°45'0 0.0
2018-Aug-07 09:30N 44°07' E 028°45'0 0.0
2018-Aug-07 09:00N 44°07' E 028°45'0 0.0
2018-Aug-07 08:30N 44°07' E 028°45'0 0.0
2018-Aug-07 08:00N 44°07' E 028°45'0 0.0
2018-Aug-07 07:30N 44°07' E 028°45'0 0.0
2018-Aug-07 07:00N 44°07' E 028°45'0 0.0
2018-Aug-07 06:30N 44°07' E 028°45'0 0.0
2018-Aug-07 06:00N 44°07' E 028°45'0 0.0
2018-Aug-07 05:30N 44°07' E 028°45'0 0.0
2018-Aug-07 05:00N 44°07' E 028°45'0 0.0
2018-Aug-07 04:30N 44°07' E 028°45'0 0.0
2018-Aug-07 04:00N 44°07' E 028°45'0 0.0
2018-Aug-07 03:30N 44°07' E 028°45'0 0.0
2018-Aug-07 03:00N 44°07' E 028°45'0 0.0
2018-Aug-07 02:30N 44°07' E 028°45'0 0.0
2018-Aug-07 02:00N 44°07' E 028°45'0 0.0
2018-Aug-07 01:30N 44°07' E 028°45'0 0.0
2018-Aug-07 01:00N 44°07' E 028°45'0 0.0
2018-Aug-07 00:30N 44°07' E 028°45'0 0.0
2018-Aug-07 00:00N 44°07' E 028°45'0 0.0
2018-Aug-06 23:30N 44°07' E 028°45'0 0.0
2018-Aug-06 23:00N 44°07' E 028°45'0 0.0
2018-Aug-06 22:30N 44°07' E 028°45'0 0.0
2018-Aug-06 22:00N 44°07' E 028°45'0 0.0
2018-Aug-06 21:27N 44°07' E 028°45'0 0.0
2018-Aug-06 21:00N 44°07' E 028°45'0 0.0
2018-Aug-06 20:30N 44°07' E 028°45'0 0.0
2018-Aug-06 20:00N 44°07' E 028°45'0 0.0
2018-Aug-06 19:30N 44°07' E 028°45'0 0.0
2018-Aug-06 19:00N 44°07' E 028°45'0 0.0
2018-Aug-06 18:30N 44°07' E 028°45'0 0.0
2018-Aug-06 18:00N 44°07' E 028°45'0 0.0
2018-Aug-06 17:30N 44°07' E 028°45'0 0.0
2018-Aug-06 17:00N 44°07' E 028°45'  
Track history (hours):
 
Tides and Currents Weather Stations Pressure Air Temp Water Temp Dewpoint Dewpoint Depression Visibility Wind Speed Wind Dir Waves Ship Positions

Sea Leader

Last reported at 2018-Aug-16 16:44 UTC. Time now 2018-Aug-21 01:55 UTC.
Position N 44°52' E 036°36'.

Length 128 m; draft 3.5 m.

Type: Cargo ship. MMSI: 229939000.

Date/timePositionNaut miles runAvg speedWind from/ knotsBaromVisibWave heightAir tempDewpointWater temp
2018-Aug-16 16:44N 44°52' E 036°36'0 0.0
2018-Aug-16 16:29N 44°52' E 036°36'0 0.0
2018-Aug-16 15:59N 44°52' E 036°36'0 0.0
2018-Aug-14 20:08N 44°52' E 036°36'0 0.0
2018-Aug-14 19:53N 44°52' E 036°36'0 0.0
2018-Aug-14 19:29N 44°52' E 036°36'0 0.0
2018-Aug-14 18:50N 44°52' E 036°36'0 0.0
2018-Aug-14 17:41N 44°52' E 036°36'0 0.0
2018-Aug-14 17:11N 44°52' E 036°36'0 0.0
2018-Aug-14 16:47N 44°52' E 036°36'0 0.0
2018-Aug-14 15:41N 44°52' E 036°36'0 0.0
2018-Aug-14 15:23N 44°52' E 036°36'0 0.0
2018-Aug-14 14:50N 44°52' E 036°36'0 0.0
2018-Aug-14 14:29N 44°52' E 036°36'0 0.0
2018-Aug-14 13:59N 44°52' E 036°36'0 0.0
2018-Aug-14 13:26N 44°52' E 036°36'0 0.0
2018-Aug-14 09:11N 44°52' E 036°36'0 0.0
2018-Aug-14 08:53N 44°52' E 036°36'0 0.0
2018-Aug-14 08:26N 44°52' E 036°36'0 0.0
2018-Aug-14 07:53N 44°52' E 036°36'0 0.0
2018-Aug-14 07:23N 44°52' E 036°36'0 0.0
2018-Aug-14 05:23N 44°52' E 036°36'0 0.0
2018-Aug-13 20:17N 44°52' E 036°36'52 8.2
2018-Aug-13 13:55N 44°26' E 035°32'7 7.8
2018-Aug-13 13:02N 44°23' E 035°24'0 7.8
2018-Aug-13 12:59N 44°23' E 035°23'4 7.8
2018-Aug-13 12:30N 44°21' E 035°19'4 7.8
2018-Aug-13 12:00N 44°19' E 035°14'4 7.8
2018-Aug-13 11:30N 44°17' E 035°09'4 7.7
2018-Aug-13 10:57N 44°15' E 035°04'236 7.4
2018-Aug-12 03:15N 43°59' E 029°36'2 7.3
2018-Aug-12 03:00N 43°59' E 029°33'4 7.3
2018-Aug-12 02:30N 43°60' E 029°28'4 7.3
2018-Aug-12 02:00N 44°00' E 029°23'4 7.4
2018-Aug-12 01:30N 44°00' E 029°18'4 7.5
2018-Aug-12 01:00N 44°01' E 029°13'4 7.3
2018-Aug-12 00:30N 44°01' E 029°08'4 7.3
2018-Aug-12 00:00N 44°02' E 029°03'4 7.3
2018-Aug-11 23:30N 44°02' E 028°58'4 7.4
2018-Aug-11 23:00N 44°02' E 028°53'4 7.6
2018-Aug-11 22:30N 44°03' E 028°48'4 7.0
2018-Aug-11 22:00N 44°04' E 028°43'4 7.3
2018-Aug-11 21:30N 44°07' E 028°41'2 3.5
2018-Aug-11 20:55N 44°09' E 028°39'0 0.0
2018-Aug-11 20:28N 44°09' E 028°39'0 0.0
2018-Aug-11 19:58N 44°09' E 028°39'0 0.0
2018-Aug-11 19:28N 44°09' E 028°39'0 0.0
2018-Aug-11 18:58N 44°09' E 028°39'0 0.0
2018-Aug-11 18:28N 44°09' E 028°39'0 0.0
2018-Aug-11 17:58N 44°09' E 028°39'0 0.0
2018-Aug-11 17:28N 44°09' E 028°39'0 0.0
2018-Aug-11 16:55N 44°09' E 028°39'0 0.0
2018-Aug-11 16:28N 44°09' E 028°39'0 0.0
2018-Aug-11 15:58N 44°09' E 028°39'0 0.0
2018-Aug-11 15:28N 44°09' E 028°39'0 0.0
2018-Aug-11 14:58N 44°09' E 028°39'0 0.0
2018-Aug-11 14:28N 44°09' E 028°39'0 0.0
2018-Aug-11 13:58N 44°09' E 028°39'0 0.0
2018-Aug-11 13:28N 44°09' E 028°39'0 0.0
2018-Aug-11 12:58N 44°09' E 028°39'0 0.0
2018-Aug-11 12:28N 44°09' E 028°39'0 0.0
2018-Aug-11 11:58N 44°09' E 028°39'0 0.0
2018-Aug-11 11:28N 44°09' E 028°39'0 0.0
2018-Aug-11 10:58N 44°09' E 028°39'0 0.0
2018-Aug-11 10:28N 44°09' E 028°39'0 0.0
2018-Aug-11 09:58N 44°09' E 028°39'0 0.0
2018-Aug-11 09:28N 44°09' E 028°39'0 0.0
2018-Aug-11 08:58N 44°09' E 028°39'0 0.0
2018-Aug-11 08:28N 44°09' E 028°39'0 0.0
2018-Aug-11 07:58N 44°09' E 028°39'0 0.0
2018-Aug-11 07:28N 44°09' E 028°39'0 0.0
2018-Aug-11 06:58N 44°09' E 028°39'0 0.0
2018-Aug-11 06:28N 44°09' E 028°39'0 0.0
2018-Aug-11 05:58N 44°09' E 028°39'0 0.0
2018-Aug-11 05:28N 44°09' E 028°39'0 0.0
2018-Aug-11 04:58N 44°09' E 028°39'0 0.0
2018-Aug-11 04:28N 44°09' E 028°39'0 0.0
2018-Aug-11 03:58N 44°09' E 028°39'0 0.0
2018-Aug-11 03:28N 44°09' E 028°39'0 0.0
2018-Aug-11 02:58N 44°09' E 028°39'0 0.0
2018-Aug-11 02:28N 44°09' E 028°39'0 0.0
2018-Aug-11 01:58N 44°09' E 028°39'0 0.0
2018-Aug-11 01:28N 44°09' E 028°39'0 0.0
2018-Aug-11 00:58N 44°09' E 028°39'0 0.0
2018-Aug-11 00:28N 44°09' E 028°39'0 0.0
2018-Aug-10 23:58N 44°09' E 028°39'0 0.0
2018-Aug-10 23:28N 44°09' E 028°39'0 0.0
2018-Aug-10 22:58N 44°09' E 028°39'0 0.0
2018-Aug-10 22:28N 44°09' E 028°39'0 0.0
2018-Aug-10 21:58N 44°09' E 028°39'0 0.0
2018-Aug-10 21:28N 44°09' E 028°39'0 0.0
2018-Aug-10 20:58N 44°09' E 028°39'0 0.0
2018-Aug-10 20:28N 44°09' E 028°39'0 0.0
2018-Aug-10 19:58N 44°09' E 028°39'0 0.0
2018-Aug-10 19:28N 44°09' E 028°39'0 0.0
2018-Aug-10 18:58N 44°09' E 028°39'0 0.0
2018-Aug-10 18:25N 44°09' E 028°39'0 0.0
2018-Aug-10 17:55N 44°09' E 028°39'0 0.0
2018-Aug-10 17:28N 44°09' E 028°39'0 0.0
2018-Aug-10 16:58N 44°09' E 028°39'0 0.0
2018-Aug-10 16:28N 44°09' E 028°39'0 0.0
2018-Aug-10 15:55N 44°09' E 028°39'0 0.0
2018-Aug-10 15:25N 44°09' E 028°39'0 0.0
2018-Aug-10 14:58N 44°09' E 028°39'0 0.0
2018-Aug-10 14:28N 44°09' E 028°39'0 0.0
2018-Aug-10 13:58N 44°09' E 028°39'0 0.0
2018-Aug-10 13:28N 44°09' E 028°39'0 0.0
2018-Aug-10 12:58N 44°09' E 028°39'0 0.0
2018-Aug-10 12:28N 44°09' E 028°39'0 0.0
2018-Aug-10 11:58N 44°09' E 028°39'0 0.0
2018-Aug-10 11:28N 44°09' E 028°39'0 0.0
2018-Aug-10 10:58N 44°09' E 028°39'0 0.0
2018-Aug-10 10:28N 44°09' E 028°39'0 0.0
2018-Aug-10 09:58N 44°09' E 028°39'0 0.0
2018-Aug-10 09:28N 44°09' E 028°39'0 0.0
2018-Aug-10 08:58N 44°09' E 028°39'0 0.0
2018-Aug-10 08:28N 44°09' E 028°39'0 0.0
2018-Aug-10 07:58N 44°09' E 028°39'0 0.0
2018-Aug-10 07:28N 44°09' E 028°39'0 0.0
2018-Aug-10 06:58N 44°09' E 028°39'0 0.0
2018-Aug-10 06:28N 44°09' E 028°39'0 0.0
2018-Aug-10 05:58N 44°09' E 028°39'0 0.0
2018-Aug-10 05:28N 44°09' E 028°39'0 0.0
2018-Aug-10 04:58N 44°09' E 028°39'0 0.0
2018-Aug-10 04:28N 44°09' E 028°39'0 0.0
2018-Aug-10 03:58N 44°09' E 028°39'0 0.0
2018-Aug-10 03:28N 44°09' E 028°39'0 0.0
2018-Aug-10 02:58N 44°09' E 028°39'0 0.0
2018-Aug-10 02:28N 44°09' E 028°39'0 0.0
2018-Aug-10 01:58N 44°09' E 028°39'0 0.0
2018-Aug-10 01:28N 44°09' E 028°39'0 0.0
2018-Aug-10 00:58N 44°09' E 028°39'0 0.0
2018-Aug-10 00:28N 44°09' E 028°39'0 0.0
2018-Aug-09 23:58N 44°09' E 028°39'0 0.0
2018-Aug-09 23:28N 44°09' E 028°39'0 0.0
2018-Aug-09 22:58N 44°09' E 028°39'0 0.0
2018-Aug-09 22:28N 44°09' E 028°39'0 0.0
2018-Aug-09 21:58N 44°09' E 028°39'0 0.0
2018-Aug-09 21:25N 44°09' E 028°39'0 0.0
2018-Aug-09 20:55N 44°09' E 028°39'0 0.0
2018-Aug-09 20:28N 44°09' E 028°39'0 0.0
2018-Aug-09 19:58N 44°09' E 028°39'0 0.0
2018-Aug-09 19:25N 44°09' E 028°39'0 0.0
2018-Aug-09 18:58N 44°09' E 028°39'0 0.0
2018-Aug-09 18:28N 44°09' E 028°39'0 0.0
2018-Aug-09 17:58N 44°09' E 028°39'0 0.0
2018-Aug-09 17:28N 44°09' E 028°39'0 0.0
2018-Aug-09 16:58N 44°09' E 028°39'0 0.0
2018-Aug-09 16:28N 44°09' E 028°39'0 0.0
2018-Aug-09 15:58N 44°09' E 028°39'0 0.0
2018-Aug-09 15:28N 44°09' E 028°39'0 0.0
2018-Aug-09 14:58N 44°09' E 028°39'0 0.0
2018-Aug-09 14:28N 44°09' E 028°39'0 0.0
2018-Aug-09 14:00N 44°09' E 028°39'1 1.5
2018-Aug-09 13:30N 44°09' E 028°40'3 6.1
2018-Aug-09 13:00N 44°06' E 028°42'2 3.7
2018-Aug-09 12:30N 44°06' E 028°45'0 1.0
2018-Aug-09 12:00N 44°07' E 028°45'0 0.1
2018-Aug-09 11:30N 44°07' E 028°45'0 0.1
2018-Aug-09 11:00N 44°07' E 028°45'0 0.1
2018-Aug-09 10:30N 44°07' E 028°45'0 0.0
2018-Aug-09 10:00N 44°07' E 028°45'0 0.0
2018-Aug-09 09:30N 44°07' E 028°45'0 0.0
2018-Aug-09 09:00N 44°07' E 028°45'0 0.0
2018-Aug-09 08:30N 44°07' E 028°45'0 0.0
2018-Aug-09 08:00N 44°07' E 028°45'0 0.0
2018-Aug-09 07:30N 44°07' E 028°45'0 0.0
2018-Aug-09 07:00N 44°07' E 028°45'0 0.0
2018-Aug-09 06:30N 44°07' E 028°45'0 0.0
2018-Aug-09 06:00N 44°07' E 028°45'0 0.0
2018-Aug-09 05:30N 44°07' E 028°45'0 0.0
2018-Aug-09 05:00N 44°07' E 028°45'0 0.0
2018-Aug-09 04:30N 44°07' E 028°45'0 0.0
2018-Aug-09 04:00N 44°07' E 028°45'0 0.0
2018-Aug-09 03:30N 44°07' E 028°45'0 0.0
2018-Aug-09 03:00N 44°07' E 028°45'0 0.0
2018-Aug-09 02:30N 44°07' E 028°45'0 0.0
2018-Aug-09 02:00N 44°07' E 028°45'0 0.0
2018-Aug-09 01:30N 44°07' E 028°45'0 0.0
2018-Aug-09 01:00N 44°07' E 028°45'0 0.0
2018-Aug-09 00:30N 44°07' E 028°45'0 0.0
2018-Aug-09 00:00N 44°07' E 028°45'0 0.0
2018-Aug-08 23:30N 44°07' E 028°45'0 0.0
2018-Aug-08 23:00N 44°07' E 028°45'0 0.0
2018-Aug-08 22:30N 44°07' E 028°45'0 0.0
2018-Aug-08 22:00N 44°07' E 028°45'0 0.0
2018-Aug-08 21:30N 44°07' E 028°45'0 0.0
2018-Aug-08 21:00N 44°07' E 028°45'0 0.0
2018-Aug-08 20:30N 44°07' E 028°45'0 0.0
2018-Aug-08 20:00N 44°07' E 028°45'0 0.0
2018-Aug-08 19:30N 44°07' E 028°45'0 0.0
2018-Aug-08 19:00N 44°07' E 028°45'0 0.0
2018-Aug-08 18:30N 44°07' E 028°45'0 0.0
2018-Aug-08 18:00N 44°07' E 028°45'0 0.0
2018-Aug-08 17:30N 44°07' E 028°45'0 0.0
2018-Aug-08 17:00N 44°07' E 028°45'0 0.0
2018-Aug-08 16:30N 44°07' E 028°45'0 0.0
2018-Aug-08 16:00N 44°07' E 028°45'0 0.0
2018-Aug-08 15:30N 44°07' E 028°45'0 0.0
2018-Aug-08 15:00N 44°07' E 028°45'0 0.0
2018-Aug-08 14:30N 44°07' E 028°45'0 0.0
2018-Aug-08 14:00N 44°07' E 028°45'0 0.0
2018-Aug-08 13:30N 44°07' E 028°45'0 0.0
2018-Aug-08 13:00N 44°07' E 028°45'0 0.0
2018-Aug-08 12:27N 44°07' E 028°45'0 0.0
2018-Aug-08 12:00N 44°07' E 028°45'0 0.0
2018-Aug-08 11:30N 44°07' E 028°45'0 0.0
2018-Aug-08 11:00N 44°07' E 028°45'0 0.0
2018-Aug-08 10:30N 44°07' E 028°45'0 0.0
2018-Aug-08 10:00N 44°07' E 028°45'0 0.0
2018-Aug-08 09:30N 44°07' E 028°45'0 0.0
2018-Aug-08 09:00N 44°07' E 028°45'0 0.0
2018-Aug-08 08:30N 44°07' E 028°45'0 0.0
2018-Aug-08 08:00N 44°07' E 028°45'0 0.0
2018-Aug-08 07:30N 44°07' E 028°45'0 0.0
2018-Aug-08 07:00N 44°07' E 028°45'0 0.0
2018-Aug-08 06:30N 44°07' E 028°45'0 0.0
2018-Aug-08 06:00N 44°07' E 028°45'0 0.0
2018-Aug-08 05:30N 44°07' E 028°45'0 0.0
2018-Aug-08 05:00N 44°07' E 028°45'0 0.0
2018-Aug-08 04:30N 44°07' E 028°45'0 0.0
2018-Aug-08 04:00N 44°07' E 028°45'0 0.0
2018-Aug-08 03:30N 44°07' E 028°45'0 0.0
2018-Aug-08 03:00N 44°07' E 028°45'0 0.0
2018-Aug-08 02:30N 44°07' E 028°45'0 0.0
2018-Aug-08 02:00N 44°07' E 028°45'0 0.0
2018-Aug-08 01:30N 44°07' E 028°45'0 0.0
2018-Aug-08 01:00N 44°07' E 028°45'0 0.0
2018-Aug-08 00:30N 44°07' E 028°45'0 0.0
2018-Aug-08 00:00N 44°07' E 028°45'0 0.0
2018-Aug-07 23:30N 44°07' E 028°45'0 0.0
2018-Aug-07 23:00N 44°07' E 028°45'0 0.0
2018-Aug-07 22:27N 44°07' E 028°45'0 0.0
2018-Aug-07 22:00N 44°07' E 028°45'0 0.0
2018-Aug-07 21:30N 44°07' E 028°45'0 0.0
2018-Aug-07 21:00N 44°07' E 028°45'0 0.0
2018-Aug-07 20:30N 44°07' E 028°45'0 0.0
2018-Aug-07 20:00N 44°07' E 028°45'0 0.0
2018-Aug-07 19:30N 44°07' E 028°45'0 0.0
2018-Aug-07 19:00N 44°07' E 028°45'0 0.0
2018-Aug-07 18:30N 44°07' E 028°45'0 0.0
2018-Aug-07 18:00N 44°07' E 028°45'0 0.0
2018-Aug-07 17:30N 44°07' E 028°45'0 0.0
2018-Aug-07 17:00N 44°07' E 028°45'0 0.0
2018-Aug-07 16:30N 44°07' E 028°45'0 0.0
2018-Aug-07 16:00N 44°07' E 028°45'0 0.0
2018-Aug-07 15:30N 44°07' E 028°45'0 0.0
2018-Aug-07 15:00N 44°07' E 028°45'0 0.0
2018-Aug-07 14:30N 44°07' E 028°45'0 0.0
2018-Aug-07 14:00N 44°07' E 028°45'0 0.0
2018-Aug-07 13:30N 44°07' E 028°45'0 0.0
2018-Aug-07 13:00N 44°07' E 028°45'0 0.0
2018-Aug-07 12:30N 44°07' E 028°45'0 0.0
2018-Aug-07 12:00N 44°07' E 028°45'0 0.0
2018-Aug-07 11:30N 44°07' E 028°45'0 0.0
2018-Aug-07 11:00N 44°07' E 028°45'0 0.1
2018-Aug-07 10:30N 44°07' E 028°45'0 0.0
2018-Aug-07 10:00N 44°07' E 028°45'0 0.0
2018-Aug-07 09:30N 44°07' E 028°45'0 0.0
2018-Aug-07 09:00N 44°07' E 028°45'0 0.0
2018-Aug-07 08:30N 44°07' E 028°45'0 0.0
2018-Aug-07 08:00N 44°07' E 028°45'0 0.0
2018-Aug-07 07:30N 44°07' E 028°45'0 0.0
2018-Aug-07 07:00N 44°07' E 028°45'0 0.0
2018-Aug-07 06:30N 44°07' E 028°45'0 0.0
2018-Aug-07 06:00N 44°07' E 028°45'0 0.0
2018-Aug-07 05:30N 44°07' E 028°45'0 0.0
2018-Aug-07 05:00N 44°07' E 028°45'0 0.0
2018-Aug-07 04:30N 44°07' E 028°45'0 0.0
2018-Aug-07 04:00N 44°07' E 028°45'0 0.0
2018-Aug-07 03:30N 44°07' E 028°45'0 0.0
2018-Aug-07 03:00N 44°07' E 028°45'0 0.0
2018-Aug-07 02:30N 44°07' E 028°45'0 0.0
2018-Aug-07 02:00N 44°07' E 028°45'0 0.0
2018-Aug-07 01:30N 44°07' E 028°45'0 0.0
2018-Aug-07 01:00N 44°07' E 028°45'0 0.0
2018-Aug-07 00:30N 44°07' E 028°45'0 0.0
2018-Aug-07 00:00N 44°07' E 028°45'0 0.0
2018-Aug-06 23:30N 44°07' E 028°45'0 0.0
2018-Aug-06 23:00N 44°07' E 028°45'0 0.0
2018-Aug-06 22:30N 44°07' E 028°45'0 0.0
2018-Aug-06 22:00N 44°07' E 028°45'0 0.0
2018-Aug-06 21:27N 44°07' E 028°45'0 0.0
2018-Aug-06 21:00N 44°07' E 028°45'0 0.0
2018-Aug-06 20:30N 44°07' E 028°45'0 0.0
2018-Aug-06 20:00N 44°07' E 028°45'0 0.0
2018-Aug-06 19:30N 44°07' E 028°45'0 0.0
2018-Aug-06 19:00N 44°07' E 028°45'0 0.0
2018-Aug-06 18:30N 44°07' E 028°45'0 0.0
2018-Aug-06 18:00N 44°07' E 028°45'0 0.0
2018-Aug-06 17:30N 44°07' E 028°45'0 0.0
2018-Aug-06 17:00N 44°07' E 028°45'  

Dump ship's entire track history